createdAt,value
2022-09-27T00:00:37.291Z,42.58
2022-09-27T00:03:03.882Z,42.66
2022-09-27T00:05:30.501Z,42.66
2022-09-27T00:07:56.992Z,42.74
2022-09-27T00:10:23.497Z,42.70
2022-09-27T00:12:50.037Z,42.62
2022-09-27T00:15:16.898Z,42.71
2022-09-27T00:17:43.501Z,42.95
2022-09-27T00:20:09.964Z,42.87
2022-09-27T00:22:36.435Z,42.99
2022-09-27T00:25:05.689Z,42.75
2022-09-27T00:27:32.146Z,43.04
2022-09-27T00:29:58.610Z,43.00
2022-09-27T00:32:25.124Z,42.83
2022-09-27T00:34:51.792Z,43.01
2022-09-27T00:37:18.417Z,43.04
2022-09-27T00:39:44.955Z,43.07
2022-09-27T00:42:12.160Z,42.97
2022-09-27T00:44:38.674Z,42.85
2022-09-27T00:47:21.598Z,43.17
2022-09-27T00:49:52.426Z,42.98
2022-09-27T00:52:26.060Z,43.12
2022-09-27T00:55:01.636Z,42.99
2022-09-27T00:57:28.114Z,43.24
2022-09-27T00:59:59.191Z,43.18
2022-09-27T01:02:25.761Z,42.88
2022-09-27T01:04:53.394Z,43.23
2022-09-27T01:07:19.854Z,43.23
2022-09-27T01:09:46.392Z,42.88
2022-09-27T01:12:31.323Z,43.30
2022-09-27T01:15:05.389Z,43.28
2022-09-27T01:17:40.986Z,43.36
2022-09-27T01:20:41.448Z,43.12
2022-09-27T01:23:35.116Z,43.52
2022-09-27T01:26:29.456Z,43.16
2022-09-27T01:29:02.924Z,43.18
2022-09-27T01:31:33.960Z,43.24
2022-09-27T01:34:03.565Z,43.36
2022-09-27T01:36:38.244Z,43.21
2022-09-27T01:39:29.198Z,43.45
2022-09-27T01:42:22.186Z,43.20
2022-09-27T01:45:06.663Z,43.24
2022-09-27T01:47:37.826Z,43.34
2022-09-27T01:50:26.876Z,43.42
2022-09-27T01:52:55.293Z,43.36
2022-09-27T01:55:23.828Z,43.22
2022-09-27T01:57:54.626Z,43.20
2022-09-27T02:00:21.157Z,43.46
2022-09-27T02:02:55.641Z,43.43
2022-09-27T02:05:23.164Z,43.27
2022-09-27T02:07:56.477Z,43.37
2022-09-27T02:10:25.017Z,43.38
2022-09-27T02:13:33.655Z,43.24
2022-09-27T02:16:03.153Z,43.43
2022-09-27T02:18:34.170Z,43.56
2022-09-27T02:21:01.243Z,43.52
2022-09-27T02:23:45.263Z,43.53
2022-09-27T02:26:38.648Z,43.58
2022-09-27T02:29:11.271Z,43.39
2022-09-27T02:31:37.800Z,43.66
2022-09-27T02:34:16.346Z,43.75
2022-09-27T02:36:42.803Z,43.74
2022-09-27T02:39:09.386Z,43.46
2022-09-27T02:41:35.971Z,43.26
2022-09-27T02:44:05.095Z,43.38
2022-09-27T02:46:54.740Z,43.29
2022-09-27T02:49:31.850Z,43.17
2022-09-27T02:52:23.432Z,43.46
2022-09-27T02:55:03.809Z,43.53
2022-09-27T02:57:57.726Z,43.22
2022-09-27T03:00:32.439Z,43.01
2022-09-27T03:03:00.953Z,43.30
2022-09-27T03:05:30.146Z,43.31
2022-09-27T03:07:57.027Z,43.25
2022-09-27T03:10:27.999Z,43.26
2022-09-27T03:12:54.766Z,43.67
2022-09-27T03:15:21.236Z,43.34
2022-09-27T03:17:47.704Z,43.64
2022-09-27T03:20:14.195Z,43.83
2022-09-27T03:22:40.931Z,43.85
2022-09-27T03:25:07.921Z,43.71
2022-09-27T03:27:34.379Z,44.07
2022-09-27T03:30:01.202Z,43.95
2022-09-27T03:32:28.213Z,43.72
2022-09-27T03:34:55.323Z,43.92
2022-09-27T03:37:22.114Z,43.54
2022-09-27T03:39:49.164Z,44.06
2022-09-27T03:42:15.633Z,43.94
2022-09-27T03:44:43.004Z,44.10
2022-09-27T03:47:09.478Z,43.69
2022-09-27T03:49:35.992Z,43.76
2022-09-27T03:52:02.473Z,43.83
2022-09-27T03:54:28.928Z,43.85
2022-09-27T03:56:55.689Z,43.88
2022-09-27T03:59:22.151Z,43.82
2022-09-27T04:01:48.651Z,43.96
2022-09-27T04:04:15.179Z,43.87
2022-09-27T04:06:41.646Z,44.05
2022-09-27T04:09:08.283Z,43.77
2022-09-27T04:11:34.732Z,44.01
2022-09-27T04:14:01.921Z,44.10
2022-09-27T04:16:28.405Z,43.88
2022-09-27T04:18:54.904Z,43.90
2022-09-27T04:21:22.512Z,43.91
2022-09-27T04:23:48.977Z,43.66
2022-09-27T04:26:15.468Z,44.02
2022-09-27T04:28:43.013Z,43.75
2022-09-27T04:31:09.591Z,43.76
2022-09-27T04:33:36.151Z,43.76
2022-09-27T04:36:21.140Z,43.97
2022-09-27T04:38:48.449Z,44.00
2022-09-27T04:41:15.373Z,44.02
2022-09-27T04:43:41.854Z,43.76
2022-09-27T04:46:08.348Z,43.84
2022-09-27T04:48:35.280Z,44.11
2022-09-27T04:51:04.921Z,43.76
2022-09-27T04:53:31.506Z,43.82
2022-09-27T04:55:58.261Z,43.93
2022-09-27T04:58:24.799Z,44.20
2022-09-27T05:00:52.355Z,44.21
2022-09-27T05:03:19.450Z,44.03
2022-09-27T05:05:45.897Z,44.06
2022-09-27T05:08:12.349Z,43.93
2022-09-27T05:10:38.801Z,43.97
2022-09-27T05:13:05.287Z,44.04
2022-09-27T05:15:31.789Z,44.05
2022-09-27T05:17:58.732Z,44.06
2022-09-27T05:20:25.602Z,44.07
2022-09-27T05:22:52.392Z,43.89
2022-09-27T05:25:18.909Z,43.83
2022-09-27T05:27:45.404Z,43.74
2022-09-27T05:30:12.050Z,44.28
2022-09-27T05:32:43.859Z,44.27
2022-09-27T05:35:10.477Z,43.78
2022-09-27T05:37:36.966Z,44.04
2022-09-27T05:40:16.847Z,43.97
2022-09-27T05:42:51.364Z,43.90
2022-09-27T05:45:17.958Z,43.76
2022-09-27T05:47:44.423Z,43.74
2022-09-27T05:50:10.866Z,43.81
2022-09-27T05:52:37.333Z,43.76
2022-09-27T05:55:03.995Z,43.95
2022-09-27T05:57:30.488Z,43.96
2022-09-27T05:59:56.925Z,43.83
2022-09-27T06:02:23.491Z,43.80
2022-09-27T06:04:49.946Z,43.78
2022-09-27T06:07:16.383Z,43.67
2022-09-27T06:09:44.244Z,43.80
2022-09-27T06:12:11.802Z,44.09
2022-09-27T06:14:38.253Z,44.13
2022-09-27T06:17:05.202Z,43.64
2022-09-27T06:19:31.721Z,43.78
2022-09-27T06:21:58.186Z,44.04
2022-09-27T06:24:24.637Z,43.58
2022-09-27T06:26:51.082Z,43.47
2022-09-27T06:29:17.534Z,43.59
2022-09-27T06:31:43.984Z,43.79
2022-09-27T06:34:10.435Z,43.60
2022-09-27T06:36:36.873Z,43.64
2022-09-27T06:39:03.351Z,44.01
2022-09-27T06:41:29.804Z,43.52
2022-09-27T06:43:56.259Z,43.56
2022-09-27T06:46:22.747Z,44.04
2022-09-27T06:48:49.206Z,43.99
2022-09-27T06:51:15.816Z,44.22
2022-09-27T06:53:42.275Z,44.34
2022-09-27T06:56:08.805Z,44.46
2022-09-27T06:58:53.802Z,44.33
2022-09-27T07:01:20.387Z,44.44
2022-09-27T07:03:50.424Z,44.45
2022-09-27T07:06:22.788Z,44.23
2022-09-27T07:08:53.035Z,44.18
2022-09-27T07:11:19.590Z,44.18
2022-09-27T07:13:46.045Z,44.35
2022-09-27T07:16:13.454Z,44.20
2022-09-27T07:18:41.011Z,44.62
2022-09-27T07:21:08.699Z,44.43
2022-09-27T07:23:36.133Z,44.54
2022-09-27T07:26:04.452Z,44.61
2022-09-27T07:28:31.623Z,44.43
2022-09-27T07:30:58.212Z,44.43
2022-09-27T07:33:24.760Z,44.33
2022-09-27T07:35:51.217Z,44.49
2022-09-27T07:38:17.735Z,44.44
2022-09-27T07:40:44.338Z,44.27
2022-09-27T07:43:12.162Z,44.21
2022-09-27T07:45:38.657Z,44.19
2022-09-27T07:48:08.684Z,44.05
2022-09-27T07:50:35.425Z,44.09
2022-09-27T07:53:01.916Z,44.36
2022-09-27T07:55:28.362Z,44.11
2022-09-27T07:58:05.190Z,44.22
2022-09-27T08:00:31.649Z,44.11
2022-09-27T08:02:58.101Z,44.16
2022-09-27T08:05:24.617Z,44.02
2022-09-27T08:07:55.371Z,44.17
2022-09-27T08:10:21.824Z,44.21
2022-09-27T08:12:48.298Z,44.00
2022-09-27T08:15:14.743Z,44.13
2022-09-27T08:17:41.467Z,44.17
2022-09-27T08:20:08.328Z,44.02
2022-09-27T08:22:40.258Z,43.97
2022-09-27T08:25:06.920Z,44.15
2022-09-27T08:27:34.425Z,44.26
2022-09-27T08:30:00.876Z,44.17
2022-09-27T08:32:28.997Z,44.16
2022-09-27T08:34:55.441Z,44.07
2022-09-27T08:37:22.172Z,44.29
2022-09-27T08:39:48.701Z,44.17
2022-09-27T08:42:35.035Z,44.34
2022-09-27T08:45:18.629Z,44.37
2022-09-27T08:47:50.804Z,44.25
2022-09-27T08:50:39.727Z,44.14
2022-09-27T08:53:30.581Z,44.19
2022-09-27T08:55:57.593Z,44.18
2022-09-27T08:58:31.103Z,44.15
2022-09-27T09:00:59.681Z,44.17
2022-09-27T09:03:28.310Z,44.19
2022-09-27T09:06:26.347Z,44.17
2022-09-27T09:09:15.695Z,44.16
2022-09-27T09:12:34.292Z,43.87
2022-09-27T09:15:14.271Z,44.11
2022-09-27T09:17:56.005Z,43.89
2022-09-27T09:20:45.281Z,43.97
2022-09-27T09:23:22.038Z,44.17
2022-09-27T09:26:05.793Z,44.28
2022-09-27T09:28:58.160Z,44.24
2022-09-27T09:31:51.863Z,44.07
2022-09-27T09:34:33.565Z,44.08
2022-09-27T09:37:17.412Z,44.03
2022-09-27T09:39:55.800Z,44.17
2022-09-27T09:42:33.565Z,44.26
2022-09-27T09:45:05.983Z,43.94
2022-09-27T09:47:38.090Z,43.82
2022-09-27T09:50:07.095Z,43.67
2022-09-27T09:52:39.972Z,43.65
2022-09-27T09:55:13.172Z,43.20
2022-09-27T09:57:44.133Z,43.27
2022-09-27T10:00:14.852Z,43.13
2022-09-27T10:02:45.492Z,43.21
2022-09-27T10:05:14.990Z,43.26
2022-09-27T10:07:41.671Z,43.16
2022-09-27T10:10:08.823Z,43.39
2022-09-27T10:12:35.291Z,43.04
2022-09-27T10:15:03.012Z,43.03
2022-09-27T10:17:41.720Z,43.16
2022-09-27T10:20:08.548Z,42.73
2022-09-27T10:22:43.186Z,42.98
2022-09-27T10:25:10.808Z,42.75
2022-09-27T10:27:45.871Z,42.91
2022-09-27T10:30:29.803Z,42.77
2022-09-27T10:33:07.840Z,42.93
2022-09-27T10:35:39.371Z,43.05
2022-09-27T10:38:25.665Z,43.01
2022-09-27T10:40:53.861Z,42.75
2022-09-27T10:43:30.125Z,43.01
2022-09-27T10:46:12.685Z,42.93
2022-09-27T10:48:39.519Z,42.86
2022-09-27T10:51:07.567Z,42.93
2022-09-27T10:53:35.389Z,42.95
2022-09-27T10:56:01.910Z,42.98
2022-09-27T10:58:33.518Z,42.85
2022-09-27T11:01:03.261Z,42.56
2022-09-27T11:03:36.285Z,42.99
2022-09-27T11:06:28.239Z,43.15
2022-09-27T11:08:55.516Z,43.02
2022-09-27T11:11:26.671Z,43.19
2022-09-27T11:14:08.001Z,43.23
2022-09-27T11:17:01.083Z,43.17
2022-09-27T11:19:42.237Z,43.32
2022-09-27T11:22:15.586Z,43.52
2022-09-27T11:24:53.711Z,43.25
2022-09-27T11:27:34.528Z,43.52
2022-09-27T11:30:05.056Z,43.51
2022-09-27T11:32:42.108Z,43.46
2022-09-27T11:35:33.755Z,43.44
2022-09-27T11:38:09.675Z,43.54
2022-09-27T11:41:13.702Z,43.60
2022-09-27T11:43:56.318Z,43.57
2022-09-27T11:46:40.410Z,43.67
2022-09-27T11:49:26.819Z,43.73
2022-09-27T11:52:34.914Z,43.71
2022-09-27T11:55:24.254Z,43.78
2022-09-27T11:58:00.792Z,43.75
2022-09-27T12:00:56.069Z,43.62
2022-09-27T12:03:43.127Z,43.74
2022-09-27T12:06:16.252Z,43.80
2022-09-27T12:08:55.183Z,43.75
2022-09-27T12:11:25.377Z,43.75
2022-09-27T12:14:10.976Z,43.71
2022-09-27T12:16:37.446Z,43.77
2022-09-27T12:19:04.008Z,43.79
2022-09-27T12:21:30.682Z,43.55
2022-09-27T12:24:00.085Z,43.45
2022-09-27T12:26:30.072Z,43.48
2022-09-27T12:29:22.355Z,43.50
2022-09-27T12:32:06.065Z,43.54
2022-09-27T12:34:49.802Z,43.61
2022-09-27T12:37:18.939Z,43.61
2022-09-27T12:40:06.716Z,43.67
2022-09-27T12:42:43.041Z,43.66
2022-09-27T12:45:16.203Z,43.74
2022-09-27T12:48:11.880Z,43.65
2022-09-27T12:50:45.215Z,43.47
2022-09-27T12:53:19.954Z,43.63
2022-09-27T12:56:03.654Z,43.76
2022-09-27T12:59:00.168Z,43.83
2022-09-27T13:01:42.287Z,44.06
2022-09-27T13:04:46.670Z,44.02
2022-09-27T13:07:41.509Z,44.31
2022-09-27T13:10:24.123Z,44.35
2022-09-27T13:12:51.323Z,44.39
2022-09-27T13:15:33.850Z,44.26
2022-09-27T13:18:01.904Z,44.25
2022-09-27T13:20:31.335Z,44.07
2022-09-27T13:23:18.788Z,44.13
2022-09-27T13:25:56.264Z,44.06
2022-09-27T13:28:32.064Z,44.20
2022-09-27T13:31:00.044Z,44.24
2022-09-27T13:33:41.474Z,44.11
2022-09-27T13:36:17.077Z,44.16
2022-09-27T13:39:04.181Z,44.17
2022-09-27T13:41:49.056Z,44.31
2022-09-27T13:44:30.869Z,44.33
2022-09-27T13:47:00.543Z,44.44
2022-09-27T13:49:33.955Z,44.07
2022-09-27T13:52:02.958Z,44.35
2022-09-27T13:54:39.566Z,44.08
2022-09-27T13:57:09.644Z,43.99
2022-09-27T13:59:52.943Z,44.28
2022-09-27T14:02:21.362Z,44.30
2022-09-27T14:04:49.711Z,44.38
2022-09-27T14:07:21.906Z,44.20
2022-09-27T14:09:49.648Z,44.40
2022-09-27T14:12:38.056Z,44.17
2022-09-27T14:15:04.635Z,44.52
2022-09-27T14:17:31.285Z,43.34
2022-09-27T14:19:57.745Z,44.07
2022-09-27T14:22:24.339Z,44.24
2022-09-27T14:24:51.722Z,43.82
2022-09-27T14:27:19.089Z,43.51
2022-09-27T14:29:56.925Z,43.27
2022-09-27T14:32:25.683Z,43.62
2022-09-27T14:35:40.911Z,43.64
2022-09-27T14:38:32.968Z,43.37
2022-09-27T14:40:59.857Z,43.54
2022-09-27T14:43:26.505Z,43.42
2022-09-27T14:45:53.897Z,44.04
2022-09-27T14:48:33.634Z,44.06
2022-09-27T14:51:14.596Z,44.05
2022-09-27T14:53:45.023Z,43.93
2022-09-27T14:56:17.988Z,43.95
2022-09-27T14:58:48.454Z,44.09
2022-09-27T15:01:16.259Z,43.92
2022-09-27T15:03:44.746Z,44.11
2022-09-27T15:06:11.350Z,44.04
2022-09-27T15:08:37.800Z,43.95
2022-09-27T15:11:10.531Z,44.06
2022-09-27T15:13:37.512Z,44.18
2022-09-27T15:16:17.130Z,44.37
2022-09-27T15:18:45.236Z,44.45
2022-09-27T15:21:14.266Z,44.65
2022-09-27T15:23:44.400Z,44.33
2022-09-27T15:26:13.264Z,44.39
2022-09-27T15:28:43.120Z,44.40
2022-09-27T15:31:09.684Z,44.55
2022-09-27T15:33:36.247Z,44.36
2022-09-27T15:36:07.286Z,44.82
2022-09-27T15:38:40.263Z,44.39
2022-09-27T15:41:14.414Z,44.59
2022-09-27T15:43:47.913Z,44.47
2022-09-27T15:46:26.418Z,44.95
2022-09-27T15:49:17.942Z,44.89
2022-09-27T15:51:47.929Z,44.52
2022-09-27T15:54:15.848Z,44.87
2022-09-27T15:56:42.294Z,44.70
2022-09-27T15:59:16.678Z,44.97
2022-09-27T16:01:43.317Z,44.22
2022-09-27T16:04:09.848Z,43.76
2022-09-27T16:06:36.289Z,43.80
2022-09-27T16:09:02.735Z,44.00
2022-09-27T16:11:29.183Z,43.56
2022-09-27T16:13:56.178Z,44.06
2022-09-27T16:16:22.920Z,44.13
2022-09-27T16:18:49.578Z,44.46
2022-09-27T16:21:16.262Z,44.01
2022-09-27T16:23:42.770Z,44.66
2022-09-27T16:26:09.209Z,44.70
2022-09-27T16:28:35.718Z,44.94
2022-09-27T16:31:06.271Z,44.55
2022-09-27T16:33:32.872Z,44.03
2022-09-27T16:36:01.320Z,43.56
2022-09-27T16:38:30.157Z,43.07
2022-09-27T16:41:02.069Z,42.59
2022-09-27T16:43:28.922Z,42.26
2022-09-27T16:45:58.756Z,41.91
2022-09-27T16:48:25.426Z,41.67
2022-09-27T16:51:10.517Z,41.31
2022-09-27T16:53:37.074Z,41.42
2022-09-27T16:56:03.522Z,41.21
2022-09-27T16:58:30.543Z,41.49
2022-09-27T17:00:59.993Z,41.14
2022-09-27T17:03:26.685Z,41.10
2022-09-27T17:05:53.121Z,41.20
2022-09-27T17:08:19.566Z,40.90
2022-09-27T17:10:46.497Z,40.83
2022-09-27T17:13:13.421Z,41.07
2022-09-27T17:15:41.833Z,41.20
2022-09-27T17:18:08.317Z,41.50
2022-09-27T17:20:34.764Z,41.58
2022-09-27T17:23:01.533Z,41.53
2022-09-27T17:25:27.973Z,41.51
2022-09-27T17:27:54.748Z,41.32
2022-09-27T17:30:21.186Z,41.76
2022-09-27T17:32:47.639Z,41.48
2022-09-27T17:35:14.189Z,41.69
2022-09-27T17:37:40.668Z,41.76
2022-09-27T17:40:07.873Z,41.82
2022-09-27T17:42:37.489Z,41.80
2022-09-27T17:45:03.966Z,41.85
2022-09-27T17:47:48.991Z,41.92
2022-09-27T17:50:28.583Z,41.85
2022-09-27T17:52:57.025Z,42.30
2022-09-27T17:55:23.773Z,41.75
2022-09-27T17:57:50.319Z,41.46
2022-09-27T18:00:17.586Z,41.51
2022-09-27T18:02:45.109Z,41.31
2022-09-27T18:05:11.764Z,41.42
2022-09-27T18:07:38.222Z,41.35
2022-09-27T18:10:05.130Z,40.87
2022-09-27T18:12:35.132Z,40.94
2022-09-27T18:15:02.333Z,41.05
2022-09-27T18:17:28.822Z,40.98
2022-09-27T18:19:57.008Z,40.96
2022-09-27T18:22:28.055Z,40.92
2022-09-27T18:24:54.523Z,41.11
2022-09-27T18:27:21.177Z,40.99
2022-09-27T18:29:47.680Z,40.73
2022-09-27T18:32:14.176Z,41.61
2022-09-27T18:34:40.840Z,41.88
2022-09-27T18:37:07.301Z,41.78
2022-09-27T18:39:33.746Z,42.19
2022-09-27T18:42:00.294Z,42.27
2022-09-27T18:44:26.739Z,42.50
2022-09-27T18:46:53.277Z,42.60
2022-09-27T18:49:23.507Z,42.95
2022-09-27T18:51:52.774Z,43.31
2022-09-27T18:54:20.746Z,43.28
2022-09-27T18:56:48.311Z,43.00
2022-09-27T18:59:15.047Z,43.40
2022-09-27T19:01:44.826Z,43.40
2022-09-27T19:04:12.855Z,42.98
2022-09-27T19:06:39.457Z,43.11
2022-09-27T19:09:06.460Z,43.14
2022-09-27T19:11:34.026Z,43.17
2022-09-27T19:14:00.600Z,43.52
2022-09-27T19:16:27.511Z,43.32
2022-09-27T19:18:54.027Z,43.46
2022-09-27T19:21:22.127Z,43.06
2022-09-27T19:23:49.758Z,43.22
2022-09-27T19:26:20.316Z,43.47
2022-09-27T19:28:46.840Z,43.36
2022-09-27T19:31:17.909Z,43.21
2022-09-27T19:33:44.411Z,43.36
2022-09-27T19:36:11.809Z,42.85
2022-09-27T19:38:38.382Z,43.01
2022-09-27T19:41:05.729Z,42.93
2022-09-27T19:43:32.542Z,43.12
2022-09-27T19:46:05.539Z,43.04
2022-09-27T19:48:32.195Z,43.17
2022-09-27T19:50:59.227Z,43.03
2022-09-27T19:53:29.870Z,42.86
2022-09-27T19:55:58.896Z,42.50
2022-09-27T19:58:25.791Z,42.55
2022-09-27T20:01:06.361Z,42.57
2022-09-27T20:03:33.277Z,42.56
2022-09-27T20:05:59.931Z,42.11
2022-09-27T20:08:27.332Z,42.11
2022-09-27T20:10:55.168Z,42.05
2022-09-27T20:13:23.613Z,41.70
2022-09-27T20:15:50.385Z,41.95
2022-09-27T20:18:17.049Z,42.15
2022-09-27T20:20:43.625Z,41.98
2022-09-27T20:23:10.823Z,42.06
2022-09-27T20:25:42.157Z,42.34
2022-09-27T20:28:09.493Z,42.49
2022-09-27T20:30:35.943Z,42.21
2022-09-27T20:33:20.722Z,42.45
2022-09-27T20:35:51.534Z,42.25
2022-09-27T20:38:18.403Z,42.35
2022-09-27T20:40:52.594Z,42.62
2022-09-27T20:43:19.353Z,42.22
2022-09-27T20:45:45.829Z,42.32
2022-09-27T20:48:12.294Z,42.53
2022-09-27T20:50:38.735Z,42.31
2022-09-27T20:53:05.212Z,42.51
2022-09-27T20:55:33.408Z,42.19
2022-09-27T20:57:59.890Z,42.31
2022-09-27T21:00:26.523Z,42.63
2022-09-27T21:02:53.041Z,42.27
2022-09-27T21:05:19.502Z,42.32
2022-09-27T21:07:45.960Z,42.46
2022-09-27T21:10:12.399Z,42.24
2022-09-27T21:12:38.851Z,42.38
2022-09-27T21:15:05.548Z,42.30
2022-09-27T21:17:32.526Z,42.35
2022-09-27T21:19:59.000Z,42.70
2022-09-27T21:22:25.454Z,42.66
2022-09-27T21:24:51.896Z,42.60
2022-09-27T21:27:18.355Z,42.63
2022-09-27T21:29:44.799Z,42.45
2022-09-27T21:32:11.251Z,42.57
2022-09-27T21:34:37.696Z,42.35
2022-09-27T21:37:04.332Z,42.63
2022-09-27T21:39:31.385Z,42.24
2022-09-27T21:41:57.834Z,42.24
2022-09-27T21:44:24.278Z,42.22
2022-09-27T21:46:51.947Z,42.21
2022-09-27T21:49:18.654Z,42.00
2022-09-27T21:51:45.257Z,42.31
2022-09-27T21:54:14.688Z,42.61
2022-09-27T21:56:41.326Z,42.51
2022-09-27T21:59:10.001Z,42.73
2022-09-27T22:01:36.614Z,42.71
2022-09-27T22:04:04.375Z,42.69
2022-09-27T22:06:32.477Z,42.48
2022-09-27T22:08:59.400Z,42.37
2022-09-27T22:11:30.631Z,42.65
2022-09-27T22:13:57.445Z,42.79
2022-09-27T22:16:24.764Z,42.44
2022-09-27T22:18:51.923Z,42.84
2022-09-27T22:21:21.015Z,42.79
2022-09-27T22:23:47.466Z,42.72
2022-09-27T22:26:21.276Z,42.83
2022-09-27T22:28:47.736Z,42.84
2022-09-27T22:31:15.112Z,42.61
2022-09-27T22:33:42.383Z,43.05
2022-09-27T22:36:08.887Z,42.92
2022-09-27T22:38:35.568Z,42.79
2022-09-27T22:41:02.138Z,42.99
2022-09-27T22:43:29.268Z,42.83
2022-09-27T22:45:56.735Z,43.17
2022-09-27T22:48:23.252Z,42.85
2022-09-27T22:50:49.693Z,43.18
2022-09-27T22:53:16.153Z,42.88
2022-09-27T22:55:42.595Z,43.23
2022-09-27T22:58:09.436Z,43.01
2022-09-27T23:00:38.035Z,43.34
2022-09-27T23:03:04.559Z,42.96
2022-09-27T23:05:31.014Z,43.25
2022-09-27T23:10:23.772Z,43.30
2022-09-27T23:12:53.057Z,43.01
2022-09-27T23:15:19.504Z,42.98
2022-09-27T23:17:48.549Z,43.10
2022-09-27T23:20:14.986Z,43.33
2022-09-27T23:22:41.452Z,43.18
2022-09-27T23:25:08.244Z,43.52
2022-09-27T23:27:45.244Z,43.47
2022-09-27T23:30:13.378Z,43.41
2022-09-27T23:32:40.296Z,43.22
2022-09-27T23:35:06.839Z,43.09
2022-09-27T23:37:33.327Z,43.21
2022-09-27T23:39:59.792Z,43.37
2022-09-27T23:42:27.021Z,43.61
2022-09-27T23:44:53.572Z,43.28
2022-09-27T23:47:20.278Z,43.23
2022-09-27T23:49:46.715Z,43.25
2022-09-27T23:52:13.271Z,43.45
2022-09-27T23:54:39.726Z,43.25
2022-09-27T23:57:06.429Z,43.42
2022-09-27T23:59:32.871Z,43.48
